sensor_id;sensor_type;location;lat;lon;timestamp;pressure;altitude;pressure_sealevel;temperature;humidity
51359;BME280;37448;51.588;7.248;2023-10-13T00:01:42;100607.88;;;15.67;100.00
51359;BME280;37448;51.588;7.248;2023-10-13T00:03:42;100606.16;;;15.66;100.00
51359;BME280;37448;51.588;7.248;2023-10-13T00:05:43;100607.94;;;15.65;100.00
51359;BME280;37448;51.588;7.248;2023-10-13T00:07:44;100605.25;;;15.67;100.00
51359;BME280;37448;51.588;7.248;2023-10-13T00:09:44;100604.31;;;15.68;100.00
51359;BME280;37448;51.588;7.248;2023-10-13T00:11:44;100602.47;;;15.70;100.00
51359;BME280;37448;51.588;7.248;2023-10-13T00:13:45;100600.78;;;15.69;100.00
51359;BME280;37448;51.588;7.248;2023-10-13T00:15:51;100600.78;;;15.69;100.00
51359;BME280;37448;51.588;7.248;2023-10-13T00:17:57;100590.25;;;15.69;100.00
51359;BME280;37448;51.588;7.248;2023-10-13T00:19:58;100594.59;;;15.70;100.00
51359;BME280;37448;51.588;7.248;2023-10-13T00:22:00;100584.97;;;15.69;100.00
51359;BME280;37448;51.588;7.248;2023-10-13T00:24:09;100590.09;;;15.72;100.00
51359;BME280;37448;51.588;7.248;2023-10-13T00:26:13;100576.09;;;15.72;100.00
51359;BME280;37448;51.588;7.248;2023-10-13T00:28:19;100580.44;;;15.73;100.00
51359;BME280;37448;51.588;7.248;2023-10-13T00:30:26;100572.59;;;15.71;100.00
51359;BME280;37448;51.588;7.248;2023-10-13T00:32:32;100577.88;;;15.71;100.00
51359;BME280;37448;51.588;7.248;2023-10-13T00:34:33;100569.97;;;15.71;100.00
51359;BME280;37448;51.588;7.248;2023-10-13T00:36:38;100569.19;;;15.69;100.00
51359;BME280;37448;51.588;7.248;2023-10-13T00:38:48;100571.75;;;15.71;100.00
51359;BME280;37448;51.588;7.248;2023-10-13T00:40:48;100561.38;;;15.68;100.00
51359;BME280;37448;51.588;7.248;2023-10-13T00:42:53;100555.97;;;15.71;100.00
51359;BME280;37448;51.588;7.248;2023-10-13T00:44:53;100555.88;;;15.72;100.00
51359;BME280;37448;51.588;7.248;2023-10-13T00:46:56;100562.94;;;15.72;100.00
51359;BME280;37448;51.588;7.248;2023-10-13T00:48:57;100555.22;;;15.67;100.00
51359;BME280;37448;51.588;7.248;2023-10-13T00:51:02;100550.75;;;15.69;100.00
51359;BME280;37448;51.588;7.248;2023-10-13T00:53:09;100550.75;;;15.69;100.00
51359;BME280;37448;51.588;7.248;2023-10-13T00:55:10;100546.41;;;15.68;100.00
51359;BME280;37448;51.588;7.248;2023-10-13T00:57:15;100549.97;;;15.67;100.00
51359;BME280;37448;51.588;7.248;2023-10-13T00:59:28;100549.97;;;15.67;100.00
51359;BME280;37448;51.588;7.248;2023-10-13T01:01:29;100546.41;;;15.68;100.00
51359;BME280;37448;51.588;7.248;2023-10-13T01:03:34;100545.63;;;15.66;100.00
51359;BME280;37448;51.588;7.248;2023-10-13T01:05:36;100544.72;;;15.67;100.00
51359;BME280;37448;51.588;7.248;2023-10-13T01:07:37;100538.66;;;15.65;100.00
51359;BME280;37448;51.588;7.248;2023-10-13T01:09:44;100543.00;;;15.66;100.00
51359;BME280;37448;51.588;7.248;2023-10-13T01:11:49;100541.28;;;15.65;100.00
51359;BME280;37448;51.588;7.248;2023-10-13T01:13:52;100536.81;;;15.67;100.00
51359;BME280;37448;51.588;7.248;2023-10-13T01:15:53;100541.16;;;15.68;100.00
51359;BME280;37448;51.588;7.248;2023-10-13T01:17:54;100537.59;;;15.69;100.00
51359;BME280;37448;51.588;7.248;2023-10-13T01:19:56;100531.41;;;15.70;100.00
51359;BME280;37448;51.588;7.248;2023-10-13T01:21:58;100533.06;;;15.73;100.00
51359;BME280;37448;51.588;7.248;2023-10-13T01:24:02;100528.63;;;15.73;100.00
51359;BME280;37448;51.588;7.248;2023-10-13T01:26:07;100533.91;;;15.73;100.00
51359;BME280;37448;51.588;7.248;2023-10-13T01:28:09;100530.34;;;15.74;100.00
51359;BME280;37448;51.588;7.248;2023-10-13T01:30:10;100514.53;;;15.74;100.00
51359;BME280;37448;51.588;7.248;2023-10-13T01:32:23;100516.41;;;15.72;100.00
51359;BME280;37448;51.588;7.248;2023-10-13T01:34:24;100513.75;;;15.72;100.00
51359;BME280;37448;51.588;7.248;2023-10-13T01:36:26;100510.22;;;15.73;100.00
51359;BME280;37448;51.588;7.248;2023-10-13T01:38:26;100513.75;;;15.72;100.00
51359;BME280;37448;51.588;7.248;2023-10-13T01:40:27;100506.66;;;15.74;100.00
51359;BME280;37448;51.588;7.248;2023-10-13T01:42:33;100507.53;;;15.75;100.00
51359;BME280;37448;51.588;7.248;2023-10-13T01:44:37;100503.09;;;15.75;100.00
51359;BME280;37448;51.588;7.248;2023-10-13T01:46:38;100501.34;;;15.76;100.00
51359;BME280;37448;51.588;7.248;2023-10-13T01:48:39;100489.94;;;15.75;100.00
51359;BME280;37448;51.588;7.248;2023-10-13T01:50:40;100495.97;;;15.77;100.00
51359;BME280;37448;51.588;7.248;2023-10-13T01:52:41;100490.72;;;15.77;100.00
51359;BME280;37448;51.588;7.248;2023-10-13T01:54:43;100491.53;;;15.79;100.00
51359;BME280;37448;51.588;7.248;2023-10-13T01:56:45;100488.03;;;15.79;100.00
51359;BME280;37448;51.588;7.248;2023-10-13T01:58:45;100477.53;;;15.77;100.00
51359;BME280;37448;51.588;7.248;2023-10-13T02:00:48;100480.19;;;15.77;100.00
51359;BME280;37448;51.588;7.248;2023-10-13T02:02:48;100478.41;;;15.78;100.00
51359;BME280;37448;51.588;7.248;2023-10-13T02:04:51;100475.72;;;15.79;100.00
51359;BME280;37448;51.588;7.248;2023-10-13T02:07:00;100470.47;;;15.79;100.00
51359;BME280;37448;51.588;7.248;2023-10-13T02:11:10;100464.19;;;15.82;100.00
51359;BME280;37448;51.588;7.248;2023-10-13T02:13:13;100458.06;;;15.82;100.00
51359;BME280;37448;51.588;7.248;2023-10-13T02:15:17;100465.97;;;15.82;100.00
51359;BME280;37448;51.588;7.248;2023-10-13T02:17:23;100457.22;;;15.81;100.00
51359;BME280;37448;51.588;7.248;2023-10-13T02:19:26;100454.66;;;15.79;100.00
51359;BME280;37448;51.588;7.248;2023-10-13T02:21:28;100449.25;;;15.83;100.00
51359;BME280;37448;51.588;7.248;2023-10-13T02:23:31;100450.19;;;15.82;100.00
51359;BME280;37448;51.588;7.248;2023-10-13T02:25:34;100453.59;;;15.84;100.00
51359;BME280;37448;51.588;7.248;2023-10-13T02:27:35;100443.13;;;15.82;100.00
51359;BME280;37448;51.588;7.248;2023-10-13T02:29:41;100441.28;;;15.84;100.00
51359;BME280;37448;51.588;7.248;2023-10-13T02:31:42;100443.06;;;15.84;100.00
51359;BME280;37448;51.588;7.248;2023-10-13T02:33:53;100437.84;;;15.82;100.00
51359;BME280;37448;51.588;7.248;2023-10-13T02:35:56;100439.50;;;15.85;100.00
51359;BME280;37448;51.588;7.248;2023-10-13T02:37:58;100434.38;;;15.82;100.00
51359;BME280;37448;51.588;7.248;2023-10-13T02:40:07;100435.16;;;15.84;100.00
51359;BME280;37448;51.588;7.248;2023-10-13T02:42:09;100422.94;;;15.83;100.00
51359;BME280;37448;51.588;7.248;2023-10-13T02:44:24;100417.66;;;15.83;100.00
51359;BME280;37448;51.588;7.248;2023-10-13T02:46:29;100415.09;;;15.81;100.00
51359;BME280;37448;51.588;7.248;2023-10-13T02:48:30;100416.78;;;15.82;100.00
51359;BME280;37448;51.588;7.248;2023-10-13T02:50:56;100418.50;;;15.83;100.00
51359;BME280;37448;51.588;7.248;2023-10-13T02:52:56;100420.28;;;15.83;100.00
51359;BME280;37448;51.588;7.248;2023-10-13T02:54:56;100420.94;;;15.88;100.00
51359;BME280;37448;51.588;7.248;2023-10-13T02:56:57;100413.94;;;15.87;100.00
51359;BME280;37448;51.588;7.248;2023-10-13T02:58:59;100418.28;;;15.88;100.00
51359;BME280;37448;51.588;7.248;2023-10-13T03:01:07;100414.66;;;15.90;100.00
51359;BME280;37448;51.588;7.248;2023-10-13T03:03:19;100412.91;;;15.91;100.00
51359;BME280;37448;51.588;7.248;2023-10-13T03:05:20;100410.34;;;15.89;100.00
51359;BME280;37448;51.588;7.248;2023-10-13T03:07:22;100403.16;;;15.93;100.00
51359;BME280;37448;51.588;7.248;2023-10-13T03:09:23;100401.44;;;15.92;100.00
51359;BME280;37448;51.588;7.248;2023-10-13T03:11:23;100395.41;;;15.90;100.00
51359;BME280;37448;51.588;7.248;2023-10-13T03:13:25;100390.13;;;15.90;100.00
51359;BME280;37448;51.588;7.248;2023-10-13T03:15:26;100390.91;;;15.92;100.00
51359;BME280;37448;51.588;7.248;2023-10-13T03:17:30;100394.31;;;15.94;100.00
51359;BME280;37448;51.588;7.248;2023-10-13T03:19:34;100385.59;;;15.93;100.00
51359;BME280;37448;51.588;7.248;2023-10-13T03:21:37;100388.22;;;15.93;100.00
51359;BME280;37448;51.588;7.248;2023-10-13T03:23:37;100391.78;;;15.92;100.00
51359;BME280;37448;51.588;7.248;2023-10-13T03:25:46;100379.41;;;15.95;100.00
51359;BME280;37448;51.588;7.248;2023-10-13T03:27:51;100374.97;;;15.95;100.00
51359;BME280;37448;51.588;7.248;2023-10-13T03:29:52;100379.31;;;15.96;100.00
51359;BME280;37448;51.588;7.248;2023-10-13T03:31:55;100372.28;;;15.97;100.00
51359;BME280;37448;51.588;7.248;2023-10-13T03:34:07;100367.00;;;15.97;100.00
51359;BME280;37448;51.588;7.248;2023-10-13T03:36:13;100360.88;;;15.96;100.00
51359;BME280;37448;51.588;7.248;2023-10-13T03:38:33;100360.88;;;15.96;100.00
51359;BME280;37448;51.588;7.248;2023-10-13T03:40:39;100352.97;;;15.96;100.00
51359;BME280;37448;51.588;7.248;2023-10-13T03:42:40;100355.75;;;15.93;100.00
51359;BME280;37448;51.588;7.248;2023-10-13T03:44:41;100355.69;;;15.95;100.00
51359;BME280;37448;51.588;7.248;2023-10-13T03:46:46;100354.78;;;15.96;100.00
51359;BME280;37448;51.588;7.248;2023-10-13T03:48:49;100354.00;;;15.93;100.00
51359;BME280;37448;51.588;7.248;2023-10-13T03:50:58;100349.50;;;15.96;100.00
51359;BME280;37448;51.588;7.248;2023-10-13T03:53:02;100347.94;;;15.91;100.00
51359;BME280;37448;51.588;7.248;2023-10-13T03:55:06;100347.09;;;15.91;100.00
51359;BME280;37448;51.588;7.248;2023-10-13T03:57:07;100349.78;;;15.89;100.00
51359;BME280;37448;51.588;7.248;2023-10-13T03:59:13;100347.19;;;15.88;100.00
51359;BME280;37448;51.588;7.248;2023-10-13T04:01:16;100333.13;;;15.89;100.00
51359;BME280;37448;51.588;7.248;2023-10-13T04:03:17;100324.59;;;15.84;100.00
51359;BME280;37448;51.588;7.248;2023-10-13T04:05:18;100330.63;;;15.86;100.00
51359;BME280;37448;51.588;7.248;2023-10-13T04:07:37;100313.91;;;15.87;100.00
51359;BME280;37448;51.588;7.248;2023-10-13T04:10:00;100315.06;;;15.81;100.00
51359;BME280;37448;51.588;7.248;2023-10-13T04:12:20;100314.06;;;15.84;100.00
51359;BME280;37448;51.588;7.248;2023-10-13T04:14:43;100310.66;;;15.82;100.00
51359;BME280;37448;51.588;7.248;2023-10-13T04:16:47;100307.09;;;15.83;100.00
51359;BME280;37448;51.588;7.248;2023-10-13T04:18:54;100300.13;;;15.82;100.00
51359;BME280;37448;51.588;7.248;2023-10-13T04:20:54;100294.84;;;15.82;100.00
51359;BME280;37448;51.588;7.248;2023-10-13T04:23:07;100291.34;;;15.81;100.00
51359;BME280;37448;51.588;7.248;2023-10-13T04:25:27;100287.88;;;15.81;100.00
51359;BME280;37448;51.588;7.248;2023-10-13T04:27:42;100275.50;;;15.83;100.00
51359;BME280;37448;51.588;7.248;2023-10-13T04:29:55;100274.63;;;15.82;100.00
51359;BME280;37448;51.588;7.248;2023-10-13T04:31:56;100269.47;;;15.81;100.00
51359;BME280;37448;51.588;7.248;2023-10-13T04:34:00;100269.47;;;15.81;100.00
51359;BME280;37448;51.588;7.248;2023-10-13T04:36:03;100266.03;;;15.78;100.00
51359;BME280;37448;51.588;7.248;2023-10-13T04:38:13;100265.97;;;15.80;100.00
51359;BME280;37448;51.588;7.248;2023-10-13T04:40:20;100251.03;;;15.81;100.00
51359;BME280;37448;51.588;7.248;2023-10-13T04:42:28;100258.00;;;15.82;100.00
51359;BME280;37448;51.588;7.248;2023-10-13T04:44:47;100249.25;;;15.81;100.00
51359;BME280;37448;51.588;7.248;2023-10-13T04:46:54;100243.91;;;15.83;100.00
51359;BME280;37448;51.588;7.248;2023-10-13T04:49:07;100248.41;;;15.81;100.00
51359;BME280;37448;51.588;7.248;2023-10-13T04:51:10;100243.13;;;15.81;100.00
51359;BME280;37448;51.588;7.248;2023-10-13T04:53:29;100243.03;;;15.82;100.00
51359;BME280;37448;51.588;7.248;2023-10-13T04:55:34;100226.53;;;15.78;100.00
51359;BME280;37448;51.588;7.248;2023-10-13T04:58:04;100229.16;;;15.78;100.00
51359;BME280;37448;51.588;7.248;2023-10-13T05:00:14;100227.34;;;15.81;100.00
51359;BME280;37448;51.588;7.248;2023-10-13T05:02:18;100219.44;;;15.81;100.00
51359;BME280;37448;51.588;7.248;2023-10-13T05:04:36;100229.03;;;15.82;100.00
51359;BME280;37448;51.588;7.248;2023-10-13T05:06:59;100219.44;;;15.81;100.00
51359;BME280;37448;51.588;7.248;2023-10-13T05:09:18;100221.97;;;15.82;100.00
51359;BME280;37448;51.588;7.248;2023-10-13T05:11:37;100219.44;;;15.81;100.00
51359;BME280;37448;51.588;7.248;2023-10-13T05:13:56;100220.22;;;15.83;100.00
51359;BME280;37448;51.588;7.248;2023-10-13T05:16:14;100217.59;;;15.83;100.00
51359;BME280;37448;51.588;7.248;2023-10-13T05:18:34;100213.16;;;15.83;100.00
51359;BME280;37448;51.588;7.248;2023-10-13T05:20:55;100204.31;;;15.84;100.00
51359;BME280;37448;51.588;7.248;2023-10-13T05:23:14;100199.94;;;15.85;100.00
51359;BME280;37448;51.588;7.248;2023-10-13T05:25:36;100191.94;;;15.86;100.00
51359;BME280;37448;51.588;7.248;2023-10-13T05:27:55;100197.19;;;15.86;100.00
51359;BME280;37448;51.588;7.248;2023-10-13T05:30:13;100185.75;;;15.87;100.00
51359;BME280;37448;51.588;7.248;2023-10-13T05:32:33;100185.69;;;15.89;100.00
51359;BME280;37448;51.588;7.248;2023-10-13T05:34:52;100183.84;;;15.91;100.00
51359;BME280;37448;51.588;7.248;2023-10-13T05:37:10;100182.97;;;15.90;100.00
51359;BME280;37448;51.588;7.248;2023-10-13T05:39:29;100176.88;;;15.90;100.00
51359;BME280;37448;51.588;7.248;2023-10-13T05:41:48;100181.22;;;15.91;100.00
51359;BME280;37448;51.588;7.248;2023-10-13T05:44:07;100175.00;;;15.92;100.00
51359;BME280;37448;51.588;7.248;2023-10-13T05:46:26;100174.84;;;15.95;100.00
51359;BME280;37448;51.588;7.248;2023-10-13T05:48:26;100184.44;;;15.96;100.00
51359;BME280;37448;51.588;7.248;2023-10-13T05:50:45;100180.97;;;15.96;100.00
51359;BME280;37448;51.588;7.248;2023-10-13T05:53:18;100188.88;;;15.96;100.00
51359;BME280;37448;51.588;7.248;2023-10-13T05:55:37;100186.25;;;15.96;100.00
51359;BME280;37448;51.588;7.248;2023-10-13T05:57:55;100178.25;;;15.97;100.00
51359;BME280;37448;51.588;7.248;2023-10-13T06:00:15;100186.09;;;15.99;100.00
51359;BME280;37448;51.588;7.248;2023-10-13T06:02:34;100193.88;;;16.00;100.00
51359;BME280;37448;51.588;7.248;2023-10-13T06:04:53;100187.69;;;16.01;100.00
51359;BME280;37448;51.588;7.248;2023-10-13T06:07:12;100202.56;;;16.02;100.00
51359;BME280;37448;51.588;7.248;2023-10-13T06:09:31;100205.13;;;16.04;100.00
51359;BME280;37448;51.588;7.248;2023-10-13T06:11:49;100206.00;;;16.04;100.00
51359;BME280;37448;51.588;7.248;2023-10-13T06:14:08;100207.69;;;16.05;100.00
51359;BME280;37448;51.588;7.248;2023-10-13T06:16:27;100209.41;;;16.06;100.00
51359;BME280;37448;51.588;7.248;2023-10-13T06:18:46;100200.56;;;16.07;100.00
51359;BME280;37448;51.588;7.248;2023-10-13T06:21:05;100197.94;;;16.07;100.00
51359;BME280;37448;51.588;7.248;2023-10-13T06:23:24;100191.72;;;16.09;100.00
51359;BME280;37448;51.588;7.248;2023-10-13T06:25:50;100185.53;;;16.10;100.00
51359;BME280;37448;51.588;7.248;2023-10-13T06:28:13;100174.06;;;16.11;100.00
51359;BME280;37448;51.588;7.248;2023-10-13T06:30:32;100177.63;;;16.10;100.00
51359;BME280;37448;51.588;7.248;2023-10-13T06:32:33;100178.47;;;16.10;100.00
51359;BME280;37448;51.588;7.248;2023-10-13T06:34:33;100163.44;;;16.12;100.00
51359;BME280;37448;51.588;7.248;2023-10-13T06:37:00;100151.13;;;16.13;100.00
51359;BME280;37448;51.588;7.248;2023-10-13T06:39:00;100151.91;;;16.15;100.00
51359;BME280;37448;51.588;7.248;2023-10-13T06:41:19;100158.00;;;16.15;100.00
51359;BME280;37448;51.588;7.248;2023-10-13T06:43:33;100154.53;;;16.15;100.00
51359;BME280;37448;51.588;7.248;2023-10-13T06:45:40;100152.66;;;16.17;100.00
51359;BME280;37448;51.588;7.248;2023-10-13T06:47:40;100154.38;;;16.18;100.00
51359;BME280;37448;51.588;7.248;2023-10-13T06:49:43;100142.91;;;16.19;100.00
51359;BME280;37448;51.588;7.248;2023-10-13T06:51:44;100155.13;;;16.20;100.00
51359;BME280;37448;51.588;7.248;2023-10-13T06:53:46;100146.31;;;16.21;100.00
51359;BME280;37448;51.588;7.248;2023-10-13T06:55:48;100147.16;;;16.21;100.00
51359;BME280;37448;51.588;7.248;2023-10-13T06:57:54;100143.66;;;16.21;100.00
51359;BME280;37448;51.588;7.248;2023-10-13T06:59:59;100141.78;;;16.23;100.00
51359;BME280;37448;51.588;7.248;2023-10-13T07:02:07;100143.50;;;16.24;100.00
51359;BME280;37448;51.588;7.248;2023-10-13T07:04:20;100140.78;;;16.26;100.00
51359;BME280;37448;51.588;7.248;2023-10-13T07:06:22;100141.63;;;16.26;100.00
51359;BME280;37448;51.588;7.248;2023-10-13T07:08:22;100152.09;;;16.28;100.00
51359;BME280;37448;51.588;7.248;2023-10-13T07:10:24;100154.66;;;16.29;100.00
51359;BME280;37448;51.588;7.248;2023-10-13T07:12:31;100155.44;;;16.31;100.00
51359;BME280;37448;51.588;7.248;2023-10-13T07:14:33;100148.13;;;16.36;100.00
51359;BME280;37448;51.588;7.248;2023-10-13T07:16:34;100145.31;;;16.40;100.00
51359;BME280;37448;51.588;7.248;2023-10-13T07:18:35;100148.56;;;16.45;100.00
51359;BME280;37448;51.588;7.248;2023-10-13T07:20:37;100150.94;;;16.49;100.00
51359;BME280;37448;51.588;7.248;2023-10-13T07:22:43;100142.03;;;16.52;100.00
51359;BME280;37448;51.588;7.248;2023-10-13T07:25:02;100141.69;;;16.58;100.00
51359;BME280;37448;51.588;7.248;2023-10-13T07:27:06;100148.50;;;16.62;100.00
51359;BME280;37448;51.588;7.248;2023-10-13T07:29:11;100146.63;;;16.64;100.00
51359;BME280;37448;51.588;7.248;2023-10-13T07:31:14;100148.09;;;16.70;100.00
51359;BME280;37448;51.588;7.248;2023-10-13T07:33:16;100152.59;;;16.84;100.00
51359;BME280;37448;51.588;7.248;2023-10-13T07:35:21;100145.44;;;16.86;100.00
51359;BME280;37448;51.588;7.248;2023-10-13T07:37:24;100141.34;;;16.81;100.00
51359;BME280;37448;51.588;7.248;2023-10-13T07:39:30;100149.78;;;16.87;100.00
51359;BME280;37448;51.588;7.248;2023-10-13T07:41:40;100138.28;;;16.88;100.00
51359;BME280;37448;51.588;7.248;2023-10-13T07:43:42;100143.41;;;16.91;100.00
51359;BME280;37448;51.588;7.248;2023-10-13T07:45:45;100136.59;;;16.87;100.00
51359;BME280;37448;51.588;7.248;2023-10-13T07:47:45;100145.34;;;16.88;100.00
51359;BME280;37448;51.588;7.248;2023-10-13T07:49:46;100132.84;;;16.91;100.00
51359;BME280;37448;51.588;7.248;2023-10-13T07:51:51;100131.59;;;16.99;100.00
51359;BME280;37448;51.588;7.248;2023-10-13T07:53:57;100123.53;;;17.02;100.00
51359;BME280;37448;51.588;7.248;2023-10-13T07:55:57;100123.25;;;17.06;100.00
51359;BME280;37448;51.588;7.248;2023-10-13T07:58:03;100123.41;;;17.19;100.00
51359;BME280;37448;51.588;7.248;2023-10-13T08:00:08;100124.06;;;17.23;100.00
51359;BME280;37448;51.588;7.248;2023-10-13T08:02:25;100124.66;;;17.28;100.00
51359;BME280;37448;51.588;7.248;2023-10-13T08:04:44;100122.91;;;17.43;100.00
51359;BME280;37448;51.588;7.248;2023-10-13T08:06:44;100114.66;;;17.49;100.00
51359;BME280;37448;51.588;7.248;2023-10-13T08:08:46;100109.75;;;17.58;100.00
51359;BME280;37448;51.588;7.248;2023-10-13T08:10:50;100116.59;;;17.76;100.00
51359;BME280;37448;51.588;7.248;2023-10-13T08:12:55;100118.41;;;18.05;100.00
51359;BME280;37448;51.588;7.248;2023-10-13T08:14:58;100102.47;;;18.35;100.00
51359;BME280;37448;51.588;7.248;2023-10-13T08:17:12;100109.03;;;18.72;100.00
51359;BME280;37448;51.588;7.248;2023-10-13T08:19:15;100096.94;;;18.95;100.00
51359;BME280;37448;51.588;7.248;2023-10-13T08:21:17;100098.66;;;19.24;100.00
51359;BME280;37448;51.588;7.248;2023-10-13T08:23:18;100091.34;;;19.40;100.00
51359;BME280;37448;51.588;7.248;2023-10-13T08:25:34;100087.47;;;19.59;100.00
51359;BME280;37448;51.588;7.248;2023-10-13T08:28:13;100089.91;;;19.62;100.00
51359;BME280;37448;51.588;7.248;2023-10-13T08:30:48;100079.31;;;19.75;100.00
51359;BME280;37448;51.588;7.248;2023-10-13T08:32:52;100084.00;;;19.71;100.00
51359;BME280;37448;51.588;7.248;2023-10-13T08:34:59;100085.78;;;19.71;100.00
51359;BME280;37448;51.588;7.248;2023-10-13T08:37:13;100076.34;;;19.79;100.00
51359;BME280;37448;51.588;7.248;2023-10-13T08:39:28;100075.91;;;19.86;100.00
51359;BME280;37448;51.588;7.248;2023-10-13T08:41:50;100089.00;;;20.02;100.00
51359;BME280;37448;51.588;7.248;2023-10-13T08:44:12;100072.94;;;20.29;100.00
51359;BME280;37448;51.588;7.248;2023-10-13T08:46:32;100079.44;;;20.49;100.00
51359;BME280;37448;51.588;7.248;2023-10-13T08:48:59;100072.25;;;20.51;100.00
51359;BME280;37448;51.588;7.248;2023-10-13T08:51:16;100037.19;;;20.59;100.00
51359;BME280;37448;51.588;7.248;2023-10-13T08:53:32;100053.06;;;20.48;100.00
51359;BME280;37448;51.588;7.248;2023-10-13T08:55:32;100055.81;;;20.46;100.00
51359;BME280;37448;51.588;7.248;2023-10-13T08:57:39;100037.06;;;20.36;100.00
51359;BME280;37448;51.588;7.248;2023-10-13T08:59:42;100022.91;;;20.12;97.67
51359;BME280;37448;51.588;7.248;2023-10-13T09:01:54;100030.72;;;20.02;97.93
51359;BME280;37448;51.588;7.248;2023-10-13T09:04:17;100019.97;;;20.03;99.58
51359;BME280;37448;51.588;7.248;2023-10-13T09:06:19;100022.72;;;20.15;100.00
51359;BME280;37448;51.588;7.248;2023-10-13T09:08:27;100015.59;;;20.15;100.00
51359;BME280;37448;51.588;7.248;2023-10-13T09:10:45;100023.16;;;20.08;98.18
51359;BME280;37448;51.588;7.248;2023-10-13T09:13:05;100030.34;;;20.06;98.35
51359;BME280;37448;51.588;7.248;2023-10-13T09:15:11;100020.22;;;20.00;97.44
51359;BME280;37448;51.588;7.248;2023-10-13T09:17:14;100008.75;;;19.87;94.35
51359;BME280;37448;51.588;7.248;2023-10-13T09:19:39;100002.41;;;19.76;95.48
51359;BME280;37448;51.588;7.248;2023-10-13T09:21:45;100006.66;;;19.79;95.66
51359;BME280;37448;51.588;7.248;2023-10-13T09:23:49;100012.34;;;19.99;100.00
51359;BME280;37448;51.588;7.248;2023-10-13T09:25:49;100008.34;;;19.93;100.00
51359;BME280;37448;51.588;7.248;2023-10-13T09:27:58;100006.22;;;19.85;99.05
51359;BME280;37448;51.588;7.248;2023-10-13T09:30:03;99994.16;;;19.68;92.55
51359;BME280;37448;51.588;7.248;2023-10-13T09:32:18;100004.75;;;19.68;97.89
51359;BME280;37448;51.588;7.248;2023-10-13T09:34:22;99984.94;;;19.61;97.24
51359;BME280;37448;51.588;7.248;2023-10-13T09:36:23;99979.53;;;19.62;98.28
51359;BME280;37448;51.588;7.248;2023-10-13T09:38:28;99976.03;;;19.62;95.62
51359;BME280;37448;51.588;7.248;2023-10-13T09:40:29;99979.75;;;19.59;98.38
51359;BME280;37448;51.588;7.248;2023-10-13T09:42:33;99980.81;;;19.44;91.68
51359;BME280;37448;51.588;7.248;2023-10-13T09:44:34;99990.00;;;19.64;98.56
51359;BME280;37448;51.588;7.248;2023-10-13T09:46:37;99986.22;;;19.55;91.85
51359;BME280;37448;51.588;7.248;2023-10-13T09:48:45;99982.72;;;19.55;89.37
51359;BME280;37448;51.588;7.248;2023-10-13T09:50:48;99977.41;;;19.68;97.80
51359;BME280;37448;51.588;7.248;2023-10-13T09:52:49;99978.34;;;19.79;94.83
51359;BME280;37448;51.588;7.248;2023-10-13T09:54:56;99975.63;;;19.94;97.68
51359;BME280;37448;51.588;7.248;2023-10-13T09:57:13;99970.53;;;19.91;91.76
51359;BME280;37448;51.588;7.248;2023-10-13T09:59:24;99970.69;;;19.88;93.03
51359;BME280;37448;51.588;7.248;2023-10-13T10:01:39;99970.41;;;19.79;92.62
51359;BME280;37448;51.588;7.248;2023-10-13T10:03:47;99963.94;;;19.84;96.42
51359;BME280;37448;51.588;7.248;2023-10-13T10:06:00;99963.72;;;19.74;89.66
51359;BME280;37448;51.588;7.248;2023-10-13T10:08:03;99969.34;;;19.82;92.50
51359;BME280;37448;51.588;7.248;2023-10-13T10:10:05;99973.50;;;19.73;85.09
51359;BME280;37448;51.588;7.248;2023-10-13T10:17:05;99959.81;;;19.92;95.05
51359;BME280;37448;51.588;7.248;2023-10-13T10:19:09;99955.16;;;19.83;92.31
51359;BME280;37448;51.588;7.248;2023-10-13T10:21:09;99943.25;;;19.89;93.70
51359;BME280;37448;51.588;7.248;2023-10-13T10:23:23;99962.38;;;19.94;92.33
51359;BME280;37448;51.588;7.248;2023-10-13T10:25:29;99944.56;;;19.83;90.75
51359;BME280;37448;51.588;7.248;2023-10-13T10:27:34;99946.69;;;19.91;96.49
51359;BME280;37448;51.588;7.248;2023-10-13T10:29:35;99945.84;;;19.77;89.29
51359;BME280;37448;51.588;7.248;2023-10-13T10:31:36;99958.34;;;19.75;89.39
51359;BME280;37448;51.588;7.248;2023-10-13T10:33:42;99938.00;;;19.63;90.18
51359;BME280;37448;51.588;7.248;2023-10-13T10:35:46;99941.63;;;19.62;93.33
51359;BME280;37448;51.588;7.248;2023-10-13T10:37:47;99940.16;;;19.58;90.68
51359;BME280;37448;51.588;7.248;2023-10-13T10:39:48;99934.53;;;19.62;93.58
51359;BME280;37448;51.588;7.248;2023-10-13T10:41:50;99934.84;;;19.58;85.89
51359;BME280;37448;51.588;7.248;2023-10-13T10:43:53;99932.63;;;19.51;92.82
51359;BME280;37448;51.588;7.248;2023-10-13T10:45:53;99938.03;;;19.50;91.61
51359;BME280;37448;51.588;7.248;2023-10-13T10:47:59;99949.06;;;19.44;90.74
51359;BME280;37448;51.588;7.248;2023-10-13T10:50:02;99934.66;;;19.35;89.67
51359;BME280;37448;51.588;7.248;2023-10-13T10:52:19;99938.25;;;19.34;89.06
51359;BME280;37448;51.588;7.248;2023-10-13T10:54:20;99923.34;;;19.33;90.78
51359;BME280;37448;51.588;7.248;2023-10-13T10:56:25;99928.09;;;19.28;90.22
51359;BME280;37448;51.588;7.248;2023-10-13T10:58:36;99929.59;;;19.32;88.28
51359;BME280;37448;51.588;7.248;2023-10-13T11:00:44;99923.03;;;19.38;91.72
51359;BME280;37448;51.588;7.248;2023-10-13T11:02:54;99921.19;;;19.38;92.07
51359;BME280;37448;51.588;7.248;2023-10-13T11:04:56;99917.06;;;19.47;99.09
51359;BME280;37448;51.588;7.248;2023-10-13T11:06:58;99909.47;;;19.42;89.94
51359;BME280;37448;51.588;7.248;2023-10-13T11:09:05;99916.97;;;19.48;88.35